ADDS METAR Data INFO
IDs: Format: Raw Decoded Include TAF

Data at: 1939 UTC 17 Feb 2018

KMHL 171935Z AUTO 27013G21KT 10SM SCT024 SCT032 09/03 A3003 RMK AO2
KMHL 171915Z AUTO 29014G19KT 10SM SCT022 SCT026 07/02 A3003 RMK AO2
KMHL 171855Z AUTO 27012G20KT 10SM BKN022 07/03 A3003 RMK AO2
KMHL 171835Z AUTO 27010G18KT 10SM BKN018 BKN025 07/03 A3002 RMK AO2
KMHL 171815Z AUTO 25011G15KT 10SM SCT008 BKN013 BKN019 07/05 A3001 RMK AO2
KMHL 171755Z AUTO 24011KT 10SM BKN006 OVC012 05/05 A3003 RMK AO2
KMHL 171735Z AUTO 23006KT 7SM BKN004 OVC009 04/03 A3003 RMK AO2
KMHL 171715Z AUTO 22009G14KT 5SM BR OVC004 03/03 A3003 RMK AO2
KMHL 171655Z AUTO 23006KT 2SM BR OVC004 03/02 A3003 RMK AO2 P0001
KMHL 171635Z AUTO 21009G15KT 1 1/4SM UP OVC004 03/02 A3002 RMK AO2 P0001
KMHL 171615Z AUTO 00000KT 1SM UP OVC004 02/02 A3002 RMK AO2 P0001
KMHL 171555Z AUTO 20003KT 1 1/2SM UP OVC006 02/02 A3002 RMK AO2 P0002
KMHL 171535Z AUTO 18007KT 2 1/2SM UP OVC006 02/02 A3001 RMK AO2 P0001
KMHL 171515Z AUTO 00000KT 2 1/2SM UP OVC006 02/01 A3001 RMK AO2 P0001
KMHL 171455Z AUTO 00000KT 4SM UP OVC006 02/01 A3001 RMK AO2
KMHL 171435Z AUTO 16008KT 5SM UP BKN006 BKN028 BKN120 02/01 A3001 RMK AO2
KMHL 171415Z AUTO 16005KT 7SM BKN006 BKN028 01/01 A3000 RMK AO2
KMHL 171355Z AUTO 14008KT 5SM UP OVC006 01/01 A3000 RMK AO2 P0002
KMHL 171335Z AUTO 00000KT 4SM UP BKN006 OVC011 01/00 A3001 RMK AO2 P0001
KMHL 171315Z AUTO 00000KT 4SM UP SCT005 OVC011 00/00 A3001 RMK AO2
KMHL 171255Z AUTO 00000KT 3SM -SN SCT005 OVC011 00/M01 A3002 RMK AO2
KMHL 171235Z AUTO 00000KT 4SM -SN SCT005 SCT019 00/M04 A3001 RMK AO2
KMHL 171215Z AUTO 00000KT 10SM CLR 00/M06 A3001 RMK AO2
KMHL 171155Z AUTO 00000KT 10SM CLR 00/M06 A3003 RMK AO2
KMHL 171135Z AUTO 00000KT 10SM CLR 00/M07 A3005 RMK AO2
KMHL 171115Z AUTO 00000KT 10SM CLR 00/M07 A3006 RMK AO2
KMHL 171055Z AUTO 00000KT 10SM CLR 00/M07 A3006 RMK AO2
KMHL 171035Z AUTO 00000KT 10SM CLR 00/M07 A3007 RMK AO2
KMHL 171015Z AUTO 00000KT 10SM CLR 00/M08 A3008 RMK AO2
KMHL 170955Z AUTO 00000KT 10SM CLR 00/M08 A3009 RMK AO2
KMHL 170935Z AUTO 00000KT 10SM CLR 00/M08 A3010 RMK AO2
KMHL 170915Z AUTO 00000KT 10SM CLR 00/M08 A3011 RMK AO2
KMHL 170855Z AUTO 00000KT 10SM CLR 00/M09 A3012 RMK AO2
KMHL 170835Z AUTO 00000KT 10SM CLR 00/M09 A3013 RMK AO2
KMHL 170815Z AUTO 00000KT 10SM CLR M01/M10 A3014 RMK AO2
KMHL 170755Z AUTO 00000KT 10SM CLR M01/M10 A3015 RMK AO2
KMHL 170735Z AUTO 00000KT 10SM CLR M01/M10 A3016 RMK AO2
KMHL 170715Z AUTO 00000KT 10SM CLR M01/M10 A3017 RMK AO2
KMHL 170655Z AUTO 00000KT 10SM CLR M01/M10 A3018 RMK AO2
KMHL 170635Z AUTO 00000KT 10SM CLR M01/M10 A3019 RMK AO2
KMHL 170615Z AUTO 00000KT 10SM CLR M02/M10 A3020 RMK AO2
KMHL 170555Z AUTO 00000KT 10SM CLR M02/M09 A3021 RMK AO2
KMHL 170535Z AUTO 00000KT 10SM CLR M02/M11 A3022 RMK AO2
KMHL 170515Z AUTO 00000KT 10SM CLR M01/M12 A3023 RMK AO2
KMHL 170455Z AUTO 00000KT 10SM CLR M01/M12 A3025 RMK AO2
KMHL 170435Z AUTO 00000KT 10SM CLR M01/M12 A3025 RMK AO2
KMHL 170415Z AUTO 00000KT 10SM CLR 00/M12 A3025 RMK AO2
KMHL 170355Z AUTO 00000KT 10SM CLR M01/M12 A3025 RMK AO2
KMHL 170335Z AUTO 00000KT 10SM CLR 00/M12 A3026 RMK AO2
KMHL 170315Z AUTO 00000KT 10SM CLR 00/M13 A3026 RMK AO2
KMHL 170255Z AUTO 00000KT 10SM CLR 00/M12 A3028 RMK AO2
KMHL 170235Z AUTO 00000KT 10SM CLR 00/M13 A3028 RMK AO2
KMHL 170215Z AUTO 00000KT 10SM CLR 00/M13 A3029 RMK AO2
KMHL 170155Z AUTO 00000KT 10SM CLR 00/M12 A3030 RMK AO2
KMHL 170135Z AUTO 00000KT 10SM CLR 00/M13 A3031 RMK AO2
KMHL 170115Z AUTO 00000KT 10SM CLR 00/M13 A3031 RMK AO2
KMHL 170055Z AUTO 00000KT 10SM CLR 01/M13 A3032 RMK AO2
KMHL 170035Z AUTO 00000KT 10SM CLR 01/M13 A3033 RMK AO2
KMHL 170015Z AUTO 00000KT 10SM CLR 01/M13 A3034 RMK AO2
KMHL 162355Z AUTO 00000KT 10SM CLR 01/M13 A3034 RMK AO2
KMHL 162335Z AUTO 00000KT 10SM CLR 02/M12 A3034 RMK AO2
KMHL 162315Z AUTO 00000KT 10SM CLR 03/M13 A3034 RMK AO2
KMHL 162255Z AUTO 00000KT 10SM CLR 03/M13 A3035 RMK AO2
KMHL 162235Z AUTO 00000KT 10SM CLR 03/M13 A3036 RMK AO2
KMHL 162215Z AUTO 00000KT 10SM CLR 04/M13 A3036 RMK AO2
KMHL 162155Z AUTO 00000KT 10SM CLR 03/M14 A3036 RMK AO2
KMHL 162135Z AUTO 00000KT 10SM CLR 03/M14 A3036 RMK AO2
KMHL 162115Z AUTO 00000KT 10SM CLR 03/M14 A3037 RMK AO2
KMHL 162055Z AUTO 00000KT 10SM CLR 03/M14 A3037 RMK AO2
KMHL 162035Z AUTO 00000KT 10SM CLR 03/M13 A3038 RMK AO2
KMHL 162015Z AUTO 33006KT 10SM CLR 02/M13 A3038 RMK AO2
KMHL 161955Z AUTO 35006KT 10SM CLR 03/M13 A3039 RMK AO2
KMHL 161935Z AUTO 31005KT 10SM CLR 02/M14 A3040 RMK AO2
KMHL 161915Z AUTO 01004KT 10SM CLR 01/M15 A3041 RMK AO2
KMHL 161855Z AUTO 34007KT 10SM CLR 01/M14 A3043 RMK AO2
KMHL 161835Z AUTO 34008KT 313V013 10SM CLR 01/M14 A3044 RMK AO2
KMHL 161815Z AUTO 34008G14KT 10SM CLR 01/M13 A3044 RMK AO2
KMHL 161755Z AUTO 33007G16KT 10SM CLR 00/M14 A3046 RMK AO2
KMHL 161735Z AUTO 32008KT 10SM CLR 00/M15 A3046 RMK AO2
KMHL 161715Z AUTO 35010G15KT 10SM CLR 00/M13 A3046 RMK AO2
KMHL 161655Z AUTO 31011G14KT 10SM CLR M01/M12 A3046 RMK AO2
KMHL 161635Z AUTO 32007G15KT 10SM CLR M01/M11 A3046 RMK AO2
KMHL 161615Z AUTO 33010G16KT 10SM CLR M01/M12 A3045 RMK AO2
KMHL 161555Z AUTO 34014KT 10SM CLR M01/M11 A3045 RMK AO2
KMHL 161535Z AUTO 34013KT 10SM CLR M01/M11 A3044 RMK AO2
KMHL 161515Z AUTO 32014G20KT 10SM CLR M01/M10 A3043 RMK AO2
KMHL 161455Z AUTO 34013G18KT 10SM CLR M01/M07 A3042 RMK AO2
KMHL 161435Z AUTO 33016G22KT 10SM CLR M01/M08 A3041 RMK AO2
KMHL 161415Z AUTO 33011G15KT 10SM CLR M01/M06 A3040 RMK AO2
KMHL 161355Z AUTO 33014G19KT 10SM CLR M01/M06 A3038 RMK AO2
KMHL 161335Z AUTO 33012G19KT 10SM CLR M01/M06 A3037 RMK AO2
KMHL 161315Z AUTO 34009G17KT 10SM CLR M01/M05 A3035 RMK AO2
KMHL 161255Z AUTO 33015G20KT 10SM CLR M01/M05 A3034 RMK AO2
KMHL 161235Z AUTO 34013G18KT 10SM CLR 00/M05 A3032 RMK AO2
KMHL 161215Z AUTO 34015G24KT 10SM CLR 00/M05 A3032 RMK AO2
KMHL 161155Z AUTO 33012G19KT 10SM SCT021 00/M04 A3031 RMK AO2
KMHL 161135Z AUTO 33015G20KT 10SM SCT021 00/M03 A3029 RMK AO2
KMHL 161115Z AUTO 34012G18KT 10SM CLR 00/M03 A3027 RMK AO2
KMHL 161055Z AUTO 34012G19KT 10SM CLR 01/M02 A3026 RMK AO2
KMHL 161035Z AUTO 34013G16KT 10SM SCT019 01/M02 A3024 RMK AO2
KMHL 161015Z AUTO 33012G16KT 10SM SCT019 01/M02 A3023 RMK AO2
KMHL 160955Z AUTO 33014G22KT 10SM BKN019 01/M02 A3021 RMK AO2
KMHL 160935Z AUTO 33014G21KT 10SM SCT019 01/M01 A3021 RMK AO2
KMHL 160915Z AUTO 34011G20KT 10SM SCT019 SCT065 02/M01 A3020 RMK AO2
KMHL 160855Z AUTO 34012G21KT 10SM SCT019 SCT065 02/M01 A3019 RMK AO2
KMHL 160835Z AUTO 33010G19KT 10SM SCT019 02/M01 A3019 RMK AO2
KMHL 160815Z AUTO 34014G19KT 10SM SCT017 02/M01 A3016 RMK AO2
KMHL 160755Z AUTO 34010G17KT 10SM SCT017 02/00 A3014 RMK AO2